sensor_id;sensor_type;location;lat;lon;timestamp;temperature;humidity
72952;HTU21D;61102;51.956;5.878;2022-09-09T00:03:57;18.82;63.59
72952;HTU21D;61102;51.956;5.878;2022-09-09T00:06:31;18.71;64.04
72952;HTU21D;61102;51.956;5.878;2022-09-09T00:09:12;18.69;64.21
72952;HTU21D;61102;51.956;5.878;2022-09-09T00:11:53;18.71;64.23
72952;HTU21D;61102;51.956;5.878;2022-09-09T00:17:56;18.81;63.88
72952;HTU21D;61102;51.956;5.878;2022-09-09T00:20:42;18.85;63.86
72952;HTU21D;61102;51.956;5.878;2022-09-09T00:23:15;18.85;63.98
72952;HTU21D;61102;51.956;5.878;2022-09-09T00:28:46;18.96;63.90
72952;HTU21D;61102;51.956;5.878;2022-09-09T00:31:18;18.99;63.92
72952;HTU21D;61102;51.956;5.878;2022-09-09T00:33:46;19.02;63.87
72952;HTU21D;61102;51.956;5.878;2022-09-09T00:36:16;19.03;64.00
72952;HTU21D;61102;51.956;5.878;2022-09-09T00:38:53;19.06;64.01
72952;HTU21D;61102;51.956;5.878;2022-09-09T00:44:34;18.93;64.27
72952;HTU21D;61102;51.956;5.878;2022-09-09T00:50:05;18.77;64.30
72952;HTU21D;61102;51.956;5.878;2022-09-09T00:52:40;18.71;64.42
72952;HTU21D;61102;51.956;5.878;2022-09-09T00:57:48;18.58;64.48
72952;HTU21D;61102;51.956;5.878;2022-09-09T01:00:30;18.56;64.56
72952;HTU21D;61102;51.956;5.878;2022-09-09T01:03:01;18.54;64.40
72952;HTU21D;61102;51.956;5.878;2022-09-09T01:05:49;18.50;64.51
72952;HTU21D;61102;51.956;5.878;2022-09-09T01:11:05;18.38;64.45
72952;HTU21D;61102;51.956;5.878;2022-09-09T01:13:35;18.28;64.72
72952;HTU21D;61102;51.956;5.878;2022-09-09T01:16:10;18.27;64.86
72952;HTU21D;61102;51.956;5.878;2022-09-09T01:18:46;18.24;64.88
72952;HTU21D;61102;51.956;5.878;2022-09-09T01:24:35;18.21;64.75
72952;HTU21D;61102;51.956;5.878;2022-09-09T01:27:23;18.21;64.48
72952;HTU21D;61102;51.956;5.878;2022-09-09T01:29:50;18.15;64.65
72952;HTU21D;61102;51.956;5.878;2022-09-09T01:35:03;18.08;64.75
72952;HTU21D;61102;51.956;5.878;2022-09-09T01:37:29;18.05;64.76
72952;HTU21D;61102;51.956;5.878;2022-09-09T01:39:55;18.02;64.88
72952;HTU21D;61102;51.956;5.878;2022-09-09T01:42:22;17.98;64.88
72952;HTU21D;61102;51.956;5.878;2022-09-09T01:44:48;17.94;64.95
72952;HTU21D;61102;51.956;5.878;2022-09-09T01:47:15;17.90;65.05
72952;HTU21D;61102;51.956;5.878;2022-09-09T01:50:07;18.35;63.60
72952;HTU21D;61102;51.956;5.878;2022-09-09T01:52:36;17.98;64.38
72952;HTU21D;61102;51.956;5.878;2022-09-09T01:55:04;17.87;64.86
72952;HTU21D;61102;51.956;5.878;2022-09-09T02:00:16;18.22;63.71
72952;HTU21D;61102;51.956;5.878;2022-09-09T02:05:38;17.80;64.99
72952;HTU21D;61102;51.956;5.878;2022-09-09T02:08:40;17.76;65.04
72952;HTU21D;61102;51.956;5.878;2022-09-09T02:11:16;17.72;65.13
72952;HTU21D;61102;51.956;5.878;2022-09-09T02:13:50;17.65;65.11
72952;HTU21D;61102;51.956;5.878;2022-09-09T02:16:23;17.64;65.29
72952;HTU21D;61102;51.956;5.878;2022-09-09T02:18:57;17.63;65.37
72952;HTU21D;61102;51.956;5.878;2022-09-09T02:21:37;17.61;65.11
72952;HTU21D;61102;51.956;5.878;2022-09-09T02:24:07;17.56;65.41
72952;HTU21D;61102;51.956;5.878;2022-09-09T02:26:42;17.56;65.46
72952;HTU21D;61102;51.956;5.878;2022-09-09T02:29:17;17.61;65.50
72952;HTU21D;61102;51.956;5.878;2022-09-09T02:31:47;17.59;65.35
72952;HTU21D;61102;51.956;5.878;2022-09-09T02:34:21;17.59;65.38
72952;HTU21D;61102;51.956;5.878;2022-09-09T02:36:50;17.56;65.32
72952;HTU21D;61102;51.956;5.878;2022-09-09T02:39:19;17.60;65.30
72952;HTU21D;61102;51.956;5.878;2022-09-09T02:41:46;17.59;65.35
72952;HTU21D;61102;51.956;5.878;2022-09-09T02:44:17;17.56;65.66
72952;HTU21D;61102;51.956;5.878;2022-09-09T02:49:59;17.55;65.72
72952;HTU21D;61102;51.956;5.878;2022-09-09T02:55:07;17.49;65.82
72952;HTU21D;61102;51.956;5.878;2022-09-09T02:57:38;17.48;65.62
72952;HTU21D;61102;51.956;5.878;2022-09-09T03:00:05;17.47;65.58
72952;HTU21D;61102;51.956;5.878;2022-09-09T03:02:33;17.48;65.68
72952;HTU21D;61102;51.956;5.878;2022-09-09T03:05:05;17.45;65.77
72952;HTU21D;61102;51.956;5.878;2022-09-09T03:07:32;17.44;65.80
72952;HTU21D;61102;51.956;5.878;2022-09-09T03:09:58;17.46;65.83
72952;HTU21D;61102;51.956;5.878;2022-09-09T03:12:26;17.44;65.88
72952;HTU21D;61102;51.956;5.878;2022-09-09T03:14:52;17.44;65.90
72952;HTU21D;61102;51.956;5.878;2022-09-09T03:17:19;17.44;65.91
72952;HTU21D;61102;51.956;5.878;2022-09-09T03:19:50;17.44;65.92
72952;HTU21D;61102;51.956;5.878;2022-09-09T03:22:18;17.45;65.98
72952;HTU21D;61102;51.956;5.878;2022-09-09T03:24:45;17.45;66.04
72952;HTU21D;61102;51.956;5.878;2022-09-09T03:27:13;17.45;65.98
72952;HTU21D;61102;51.956;5.878;2022-09-09T03:29:40;17.45;66.00
72952;HTU21D;61102;51.956;5.878;2022-09-09T03:32:11;17.46;66.15
72952;HTU21D;61102;51.956;5.878;2022-09-09T03:34:38;17.41;66.24
72952;HTU21D;61102;51.956;5.878;2022-09-09T03:37:11;17.44;66.27
72952;HTU21D;61102;51.956;5.878;2022-09-09T03:39:37;17.44;66.30
72952;HTU21D;61102;51.956;5.878;2022-09-09T03:42:03;17.45;66.39
72952;HTU21D;61102;51.956;5.878;2022-09-09T03:44:30;17.91;64.98
72952;HTU21D;61102;51.956;5.878;2022-09-09T03:46:57;17.64;65.53
72952;HTU21D;61102;51.956;5.878;2022-09-09T03:49:23;17.55;65.95
72952;HTU21D;61102;51.956;5.878;2022-09-09T03:51:50;17.55;66.14
72952;HTU21D;61102;51.956;5.878;2022-09-09T03:54:16;17.61;66.17
72952;HTU21D;61102;51.956;5.878;2022-09-09T03:56:42;17.64;66.13
72952;HTU21D;61102;51.956;5.878;2022-09-09T03:59:09;17.68;66.15
72952;HTU21D;61102;51.956;5.878;2022-09-09T04:01:35;17.69;66.19
72952;HTU21D;61102;51.956;5.878;2022-09-09T04:04:02;17.69;66.27
72952;HTU21D;61102;51.956;5.878;2022-09-09T04:06:28;17.73;66.21
72952;HTU21D;61102;51.956;5.878;2022-09-09T04:08:56;17.75;66.16
72952;HTU21D;61102;51.956;5.878;2022-09-09T04:11:22;17.78;66.11
72952;HTU21D;61102;51.956;5.878;2022-09-09T04:13:51;17.81;66.00
72952;HTU21D;61102;51.956;5.878;2022-09-09T04:16:18;17.88;65.90
72952;HTU21D;61102;51.956;5.878;2022-09-09T04:18:46;17.91;65.87
72952;HTU21D;61102;51.956;5.878;2022-09-09T04:21:14;17.93;65.80
72952;HTU21D;61102;51.956;5.878;2022-09-09T04:23:41;17.94;65.83
72952;HTU21D;61102;51.956;5.878;2022-09-09T04:26:08;17.96;65.82
72952;HTU21D;61102;51.956;5.878;2022-09-09T04:28:36;17.96;65.88
72952;HTU21D;61102;51.956;5.878;2022-09-09T04:31:08;17.99;66.01
72952;HTU21D;61102;51.956;5.878;2022-09-09T04:33:36;18.03;65.76
72952;HTU21D;61102;51.956;5.878;2022-09-09T04:36:02;18.06;65.78
72952;HTU21D;61102;51.956;5.878;2022-09-09T04:38:29;18.10;65.69
72952;HTU21D;61102;51.956;5.878;2022-09-09T04:40:55;18.12;65.71
72952;HTU21D;61102;51.956;5.878;2022-09-09T04:43:21;18.17;65.70
72952;HTU21D;61102;51.956;5.878;2022-09-09T04:45:50;18.19;65.71
72952;HTU21D;61102;51.956;5.878;2022-09-09T04:48:18;18.25;65.61
72952;HTU21D;61102;51.956;5.878;2022-09-09T04:51:03;18.27;65.82
72952;HTU21D;61102;51.956;5.878;2022-09-09T04:53:32;18.33;65.48
72952;HTU21D;61102;51.956;5.878;2022-09-09T04:56:08;18.35;65.72
72952;HTU21D;61102;51.956;5.878;2022-09-09T04:58:41;18.37;65.46
72952;HTU21D;61102;51.956;5.878;2022-09-09T05:01:13;18.39;65.60
72952;HTU21D;61102;51.956;5.878;2022-09-09T05:03:41;18.44;65.50
72952;HTU21D;61102;51.956;5.878;2022-09-09T05:06:12;18.46;65.54
72952;HTU21D;61102;51.956;5.878;2022-09-09T05:08:40;18.50;65.57
72952;HTU21D;61102;51.956;5.878;2022-09-09T05:13:52;18.55;65.52
72952;HTU21D;61102;51.956;5.878;2022-09-09T05:16:20;18.56;65.61
72952;HTU21D;61102;51.956;5.878;2022-09-09T05:18:46;19.03;64.21
72952;HTU21D;61102;51.956;5.878;2022-09-09T05:21:14;18.71;65.03
72952;HTU21D;61102;51.956;5.878;2022-09-09T05:23:40;18.65;65.34
72952;HTU21D;61102;51.956;5.878;2022-09-09T05:26:11;18.59;65.67
72952;HTU21D;61102;51.956;5.878;2022-09-09T05:28:37;18.63;65.48
72952;HTU21D;61102;51.956;5.878;2022-09-09T05:31:06;18.62;65.62
72952;HTU21D;61102;51.956;5.878;2022-09-09T05:33:35;18.70;65.43
72952;HTU21D;61102;51.956;5.878;2022-09-09T05:36:04;18.67;65.49
72952;HTU21D;61102;51.956;5.878;2022-09-09T05:38:31;18.68;65.46
72952;HTU21D;61102;51.956;5.878;2022-09-09T05:41:00;18.67;65.50
72952;HTU21D;61102;51.956;5.878;2022-09-09T05:43:26;18.68;65.52
72952;HTU21D;61102;51.956;5.878;2022-09-09T05:46:07;18.69;65.72
72952;HTU21D;61102;51.956;5.878;2022-09-09T05:48:36;18.68;65.57
72952;HTU21D;61102;51.956;5.878;2022-09-09T05:51:05;18.66;65.60
72952;HTU21D;61102;51.956;5.878;2022-09-09T05:53:33;18.68;65.58
72952;HTU21D;61102;51.956;5.878;2022-09-09T05:56:04;18.70;65.76
72952;HTU21D;61102;51.956;5.878;2022-09-09T05:58:34;18.76;65.56
72952;HTU21D;61102;51.956;5.878;2022-09-09T06:01:09;18.77;65.66
72952;HTU21D;61102;51.956;5.878;2022-09-09T06:03:38;18.84;65.46
72952;HTU21D;61102;51.956;5.878;2022-09-09T06:06:07;18.87;65.47
72952;HTU21D;61102;51.956;5.878;2022-09-09T06:08:34;18.96;65.43
72952;HTU21D;61102;51.956;5.878;2022-09-09T06:11:08;19.09;65.27
72952;HTU21D;61102;51.956;5.878;2022-09-09T06:13:35;19.20;65.06
72952;HTU21D;61102;51.956;5.878;2022-09-09T06:16:05;19.25;65.08
72952;HTU21D;61102;51.956;5.878;2022-09-09T06:18:33;19.32;64.92
72952;HTU21D;61102;51.956;5.878;2022-09-09T06:21:01;19.30;65.01
72952;HTU21D;61102;51.956;5.878;2022-09-09T06:23:28;19.35;64.95
72952;HTU21D;61102;51.956;5.878;2022-09-09T06:26:24;19.45;65.01
72952;HTU21D;61102;51.956;5.878;2022-09-09T06:28:53;19.47;64.90
72952;HTU21D;61102;51.956;5.878;2022-09-09T06:31:22;19.46;65.04
72952;HTU21D;61102;51.956;5.878;2022-09-09T06:33:51;19.47;65.02
72952;HTU21D;61102;51.956;5.878;2022-09-09T06:36:20;19.43;65.00
72952;HTU21D;61102;51.956;5.878;2022-09-09T06:38:47;19.45;64.92
72952;HTU21D;61102;51.956;5.878;2022-09-09T06:41:16;19.40;64.96
72952;HTU21D;61102;51.956;5.878;2022-09-09T06:43:45;19.42;64.66
72952;HTU21D;61102;51.956;5.878;2022-09-09T06:46:15;19.40;64.80
72952;HTU21D;61102;51.956;5.878;2022-09-09T06:48:42;19.47;64.61
72952;HTU21D;61102;51.956;5.878;2022-09-09T06:51:16;19.47;64.53
72952;HTU21D;61102;51.956;5.878;2022-09-09T06:53:45;19.46;64.34
72952;HTU21D;61102;51.956;5.878;2022-09-09T06:56:22;19.54;64.42
72952;HTU21D;61102;51.956;5.878;2022-09-09T06:58:52;19.68;64.11
72952;HTU21D;61102;51.956;5.878;2022-09-09T07:01:26;19.80;63.98
72952;HTU21D;61102;51.956;5.878;2022-09-09T07:03:55;19.96;63.83
72952;HTU21D;61102;51.956;5.878;2022-09-09T07:06:23;20.10;63.65
72952;HTU21D;61102;51.956;5.878;2022-09-09T07:08:55;20.22;63.47
72952;HTU21D;61102;51.956;5.878;2022-09-09T07:11:25;20.30;63.42
72952;HTU21D;61102;51.956;5.878;2022-09-09T07:13:53;20.33;62.99
72952;HTU21D;61102;51.956;5.878;2022-09-09T07:16:21;20.24;62.87
72952;HTU21D;61102;51.956;5.878;2022-09-09T07:18:51;20.20;62.87
72952;HTU21D;61102;51.956;5.878;2022-09-09T07:21:17;20.64;61.09
72952;HTU21D;61102;51.956;5.878;2022-09-09T07:23:44;20.36;62.17
72952;HTU21D;61102;51.956;5.878;2022-09-09T07:26:14;20.35;62.58
72952;HTU21D;61102;51.956;5.878;2022-09-09T07:28:41;20.42;62.59
72952;HTU21D;61102;51.956;5.878;2022-09-09T07:31:14;20.48;62.38
72952;HTU21D;61102;51.956;5.878;2022-09-09T07:33:43;20.56;62.22
72952;HTU21D;61102;51.956;5.878;2022-09-09T07:36:10;21.18;60.82
72952;HTU21D;61102;51.956;5.878;2022-09-09T07:38:46;20.95;61.50
72952;HTU21D;61102;51.956;5.878;2022-09-09T07:41:16;20.93;61.55
72952;HTU21D;61102;51.956;5.878;2022-09-09T07:43:46;20.98;61.68
72952;HTU21D;61102;51.956;5.878;2022-09-09T07:46:16;21.05;61.73
72952;HTU21D;61102;51.956;5.878;2022-09-09T07:48:46;21.15;61.51
72952;HTU21D;61102;51.956;5.878;2022-09-09T07:51:16;21.14;60.98
72952;HTU21D;61102;51.956;5.878;2022-09-09T07:53:45;21.16;60.93
72952;HTU21D;61102;51.956;5.878;2022-09-09T07:56:16;21.20;60.90
72952;HTU21D;61102;51.956;5.878;2022-09-09T07:58:46;21.21;60.22
72952;HTU21D;61102;51.956;5.878;2022-09-09T08:01:15;21.25;60.57
72952;HTU21D;61102;51.956;5.878;2022-09-09T08:03:45;21.39;60.76
72952;HTU21D;61102;51.956;5.878;2022-09-09T08:06:12;21.52;60.40
72952;HTU21D;61102;51.956;5.878;2022-09-09T08:08:39;21.53;59.59
72952;HTU21D;61102;51.956;5.878;2022-09-09T08:11:13;21.45;59.83
72952;HTU21D;61102;51.956;5.878;2022-09-09T08:13:42;21.40;59.49
72952;HTU21D;61102;51.956;5.878;2022-09-09T08:16:14;21.32;59.34
72952;HTU21D;61102;51.956;5.878;2022-09-09T08:18:41;21.31;59.56
72952;HTU21D;61102;51.956;5.878;2022-09-09T08:21:13;21.30;59.54
72952;HTU21D;61102;51.956;5.878;2022-09-09T08:23:41;21.34;59.51
72952;HTU21D;61102;51.956;5.878;2022-09-09T08:26:16;21.42;59.24
72952;HTU21D;61102;51.956;5.878;2022-09-09T08:28:43;21.42;58.77
72952;HTU21D;61102;51.956;5.878;2022-09-09T08:31:13;21.42;59.01
72952;HTU21D;61102;51.956;5.878;2022-09-09T08:33:41;21.39;58.96
72952;HTU21D;61102;51.956;5.878;2022-09-09T08:36:10;21.38;59.16
72952;HTU21D;61102;51.956;5.878;2022-09-09T08:38:37;21.42;59.08
72952;HTU21D;61102;51.956;5.878;2022-09-09T08:43:50;21.43;58.74
72952;HTU21D;61102;51.956;5.878;2022-09-09T08:46:27;21.45;58.50
72952;HTU21D;61102;51.956;5.878;2022-09-09T08:49:12;21.53;58.74
72952;HTU21D;61102;51.956;5.878;2022-09-09T08:51:39;21.60;58.45
72952;HTU21D;61102;51.956;5.878;2022-09-09T08:54:05;21.58;58.28
72952;HTU21D;61102;51.956;5.878;2022-09-09T08:56:32;21.61;58.47
72952;HTU21D;61102;51.956;5.878;2022-09-09T08:59:02;21.70;58.33
72952;HTU21D;61102;51.956;5.878;2022-09-09T09:01:51;21.78;57.68
72952;HTU21D;61102;51.956;5.878;2022-09-09T09:12:58;22.22;56.85
72952;HTU21D;61102;51.956;5.878;2022-09-09T09:15:26;22.19;55.96
72952;HTU21D;61102;51.956;5.878;2022-09-09T09:17:56;22.14;55.83
72952;HTU21D;61102;51.956;5.878;2022-09-09T09:20:39;22.08;56.23
72952;HTU21D;61102;51.956;5.878;2022-09-09T09:23:19;22.05;56.09
72952;HTU21D;61102;51.956;5.878;2022-09-09T09:25:46;22.01;56.19
72952;HTU21D;61102;51.956;5.878;2022-09-09T09:28:19;21.93;56.15
72952;HTU21D;61102;51.956;5.878;2022-09-09T09:33:26;21.85;56.46
72952;HTU21D;61102;51.956;5.878;2022-09-09T09:35:55;21.90;56.31
72952;HTU21D;61102;51.956;5.878;2022-09-09T09:38:24;21.90;55.98
72952;HTU21D;61102;51.956;5.878;2022-09-09T09:40:58;21.96;56.16
72952;HTU21D;61102;51.956;5.878;2022-09-09T09:43:32;22.02;56.26
72952;HTU21D;61102;51.956;5.878;2022-09-09T09:46:05;22.09;55.55
72952;HTU21D;61102;51.956;5.878;2022-09-09T09:48:59;22.27;55.56
72952;HTU21D;61102;51.956;5.878;2022-09-09T09:51:28;22.44;55.58
72952;HTU21D;61102;51.956;5.878;2022-09-09T09:54:07;22.66;55.20
72952;HTU21D;61102;51.956;5.878;2022-09-09T09:56:36;22.81;54.78
72952;HTU21D;61102;51.956;5.878;2022-09-09T09:59:04;22.83;54.52
72952;HTU21D;61102;51.956;5.878;2022-09-09T10:01:50;22.76;53.72
72952;HTU21D;61102;51.956;5.878;2022-09-09T10:04:21;22.58;53.94
72952;HTU21D;61102;51.956;5.878;2022-09-09T10:06:51;22.52;54.20
72952;HTU21D;61102;51.956;5.878;2022-09-09T10:09:28;22.41;54.67
72952;HTU21D;61102;51.956;5.878;2022-09-09T10:12:03;22.32;54.71
72952;HTU21D;61102;51.956;5.878;2022-09-09T10:14:41;22.28;54.78
72952;HTU21D;61102;51.956;5.878;2022-09-09T10:17:36;22.23;54.92
72952;HTU21D;61102;51.956;5.878;2022-09-09T10:22:35;22.12;55.12
72952;HTU21D;61102;51.956;5.878;2022-09-09T10:28:04;22.13;54.42
72952;HTU21D;61102;51.956;5.878;2022-09-09T10:33:51;22.33;53.85
72952;HTU21D;61102;51.956;5.878;2022-09-09T10:36:25;22.27;54.18
72952;HTU21D;61102;51.956;5.878;2022-09-09T10:53:02;21.99;55.37
72952;HTU21D;61102;51.956;5.878;2022-09-09T10:55:51;22.19;55.23
72952;HTU21D;61102;51.956;5.878;2022-09-09T10:58:27;22.33;54.90
72952;HTU21D;61102;51.956;5.878;2022-09-09T11:01:06;22.34;54.84
72952;HTU21D;61102;51.956;5.878;2022-09-09T11:03:35;22.78;53.03
72952;HTU21D;61102;51.956;5.878;2022-09-09T11:06:06;22.49;54.21
72952;HTU21D;61102;51.956;5.878;2022-09-09T11:08:38;22.39;54.32
72952;HTU21D;61102;51.956;5.878;2022-09-09T11:11:32;22.39;54.51
72952;HTU21D;61102;51.956;5.878;2022-09-09T11:14:05;22.39;54.97
72952;HTU21D;61102;51.956;5.878;2022-09-09T11:17:10;22.24;55.92
72952;HTU21D;61102;51.956;5.878;2022-09-09T11:19:42;21.94;57.27
72952;HTU21D;61102;51.956;5.878;2022-09-09T11:22:32;21.77;58.35
72952;HTU21D;61102;51.956;5.878;2022-09-09T11:27:50;21.72;59.07
72952;HTU21D;61102;51.956;5.878;2022-09-09T11:30:27;21.80;59.16
72952;HTU21D;61102;51.956;5.878;2022-09-09T11:38:27;22.12;57.82
72952;HTU21D;61102;51.956;5.878;2022-09-09T11:41:01;22.36;57.58
72952;HTU21D;61102;51.956;5.878;2022-09-09T11:43:31;22.58;56.95
72952;HTU21D;61102;51.956;5.878;2022-09-09T11:46:00;22.72;56.83
72952;HTU21D;61102;51.956;5.878;2022-09-09T11:48:32;22.85;56.53
72952;HTU21D;61102;51.956;5.878;2022-09-09T11:53:31;22.55;56.58
72952;HTU21D;61102;51.956;5.878;2022-09-09T11:56:12;22.26;57.63
72952;HTU21D;61102;51.956;5.878;2022-09-09T11:58:59;22.11;58.32
72952;HTU21D;61102;51.956;5.878;2022-09-09T12:01:49;22.18;58.78
72952;HTU21D;61102;51.956;5.878;2022-09-09T12:04:29;22.18;59.03
72952;HTU21D;61102;51.956;5.878;2022-09-09T12:12:32;22.49;58.38
72952;HTU21D;61102;51.956;5.878;2022-09-09T12:17:44;22.41;58.45
72952;HTU21D;61102;51.956;5.878;2022-09-09T12:20:16;22.29;58.36
72952;HTU21D;61102;51.956;5.878;2022-09-09T12:23:13;22.19;57.95
72952;HTU21D;61102;51.956;5.878;2022-09-09T12:31:46;22.29;57.84
72952;HTU21D;61102;51.956;5.878;2022-09-09T12:34:17;22.52;57.47
72952;HTU21D;61102;51.956;5.878;2022-09-09T12:36:56;22.67;57.00
72952;HTU21D;61102;51.956;5.878;2022-09-09T12:39:31;22.79;57.00
72952;HTU21D;61102;51.956;5.878;2022-09-09T12:41:59;22.94;56.19
72952;HTU21D;61102;51.956;5.878;2022-09-09T12:44:26;23.01;56.10
72952;HTU21D;61102;51.956;5.878;2022-09-09T12:46:55;23.03;56.01
72952;HTU21D;61102;51.956;5.878;2022-09-09T12:49:30;23.03;56.07
72952;HTU21D;61102;51.956;5.878;2022-09-09T12:52:06;22.99;56.44
72952;HTU21D;61102;51.956;5.878;2022-09-09T12:54:36;23.00;56.00
72952;HTU21D;61102;51.956;5.878;2022-09-09T12:57:04;22.93;56.05
72952;HTU21D;61102;51.956;5.878;2022-09-09T12:59:39;22.94;55.95
72952;HTU21D;61102;51.956;5.878;2022-09-09T13:02:20;22.92;55.87
72952;HTU21D;61102;51.956;5.878;2022-09-09T13:04:47;22.87;55.94
72952;HTU21D;61102;51.956;5.878;2022-09-09T13:07:13;22.54;57.26
72952;HTU21D;61102;51.956;5.878;2022-09-09T13:09:43;22.19;58.47
72952;HTU21D;61102;51.956;5.878;2022-09-09T13:12:16;21.96;59.35
72952;HTU21D;61102;51.956;5.878;2022-09-09T13:14:46;21.85;59.96
72952;HTU21D;61102;51.956;5.878;2022-09-09T13:17:22;21.91;60.31
72952;HTU21D;61102;51.956;5.878;2022-09-09T13:19:49;22.07;60.04
72952;HTU21D;61102;51.956;5.878;2022-09-09T13:22:38;22.18;59.82
72952;HTU21D;61102;51.956;5.878;2022-09-09T13:27:41;22.55;59.45
72952;HTU21D;61102;51.956;5.878;2022-09-09T13:30:35;22.76;59.01
72952;HTU21D;61102;51.956;5.878;2022-09-09T13:35:58;22.99;57.85
72952;HTU21D;61102;51.956;5.878;2022-09-09T13:38:25;23.00;57.51
72952;HTU21D;61102;51.956;5.878;2022-09-09T13:41:18;22.96;57.62
72952;HTU21D;61102;51.956;5.878;2022-09-09T13:43:47;23.01;57.20
72952;HTU21D;61102;51.956;5.878;2022-09-09T13:46:40;22.98;57.11
72952;HTU21D;61102;51.956;5.878;2022-09-09T13:51:40;22.73;57.60
72952;HTU21D;61102;51.956;5.878;2022-09-09T13:54:11;23.05;56.12
72952;HTU21D;61102;51.956;5.878;2022-09-09T13:56:38;22.67;57.12
72952;HTU21D;61102;51.956;5.878;2022-09-09T13:59:09;22.52;56.92
72952;HTU21D;61102;51.956;5.878;2022-09-09T14:01:36;22.38;57.18
72952;HTU21D;61102;51.956;5.878;2022-09-09T14:04:03;22.31;57.22
72952;HTU21D;61102;51.956;5.878;2022-09-09T14:06:32;22.38;57.32
72952;HTU21D;61102;51.956;5.878;2022-09-09T14:08:58;22.58;56.97
72952;HTU21D;61102;51.956;5.878;2022-09-09T14:11:25;22.76;56.71
72952;HTU21D;61102;51.956;5.878;2022-09-09T14:13:51;22.82;55.98
72952;HTU21D;61102;51.956;5.878;2022-09-09T14:16:17;22.78;55.90
72952;HTU21D;61102;51.956;5.878;2022-09-09T14:18:45;22.72;55.87
72952;HTU21D;61102;51.956;5.878;2022-09-09T14:21:11;22.64;55.59
72952;HTU21D;61102;51.956;5.878;2022-09-09T14:23:38;22.51;55.96
72952;HTU21D;61102;51.956;5.878;2022-09-09T14:26:07;22.43;56.29
72952;HTU21D;61102;51.956;5.878;2022-09-09T14:28:40;22.42;56.58
72952;HTU21D;61102;51.956;5.878;2022-09-09T14:31:07;22.44;56.52
72952;HTU21D;61102;51.956;5.878;2022-09-09T14:33:33;22.44;56.55
72952;HTU21D;61102;51.956;5.878;2022-09-09T14:36:01;22.90;55.48
72952;HTU21D;61102;51.956;5.878;2022-09-09T14:38:33;22.73;56.18
72952;HTU21D;61102;51.956;5.878;2022-09-09T14:41:00;22.72;56.23
72952;HTU21D;61102;51.956;5.878;2022-09-09T14:43:29;22.79;56.36
72952;HTU21D;61102;51.956;5.878;2022-09-09T14:45:55;22.82;56.56
72952;HTU21D;61102;51.956;5.878;2022-09-09T14:48:21;22.86;56.55
72952;HTU21D;61102;51.956;5.878;2022-09-09T14:50:47;22.97;56.46
72952;HTU21D;61102;51.956;5.878;2022-09-09T14:53:16;23.10;56.10
72952;HTU21D;61102;51.956;5.878;2022-09-09T14:55:42;23.27;55.87
72952;HTU21D;61102;51.956;5.878;2022-09-09T14:58:08;23.41;55.81
72952;HTU21D;61102;51.956;5.878;2022-09-09T15:00:34;23.40;55.52
72952;HTU21D;61102;51.956;5.878;2022-09-09T15:03:01;23.41;55.78
72952;HTU21D;61102;51.956;5.878;2022-09-09T15:05:27;23.76;53.94
72952;HTU21D;61102;51.956;5.878;2022-09-09T15:07:53;23.43;54.78
72952;HTU21D;61102;51.956;5.878;2022-09-09T15:10:20;23.31;55.28
72952;HTU21D;61102;51.956;5.878;2022-09-09T15:12:46;23.25;55.41
72952;HTU21D;61102;51.956;5.878;2022-09-09T15:15:12;23.21;55.35
72952;HTU21D;61102;51.956;5.878;2022-09-09T15:17:38;23.25;55.67
72952;HTU21D;61102;51.956;5.878;2022-09-09T15:20:05;23.27;55.74
72952;HTU21D;61102;51.956;5.878;2022-09-09T15:22:32;23.22;55.92
72952;HTU21D;61102;51.956;5.878;2022-09-09T15:24:58;23.06;56.36
72952;HTU21D;61102;51.956;5.878;2022-09-09T15:27:24;22.91;56.78
72952;HTU21D;61102;51.956;5.878;2022-09-09T15:29:52;22.76;57.14
72952;HTU21D;61102;51.956;5.878;2022-09-09T15:32:18;22.71;57.27
72952;HTU21D;61102;51.956;5.878;2022-09-09T15:34:44;22.68;57.18
72952;HTU21D;61102;51.956;5.878;2022-09-09T15:37:10;22.68;57.16
72952;HTU21D;61102;51.956;5.878;2022-09-09T15:39:39;22.70;57.11
72952;HTU21D;61102;51.956;5.878;2022-09-09T15:42:06;22.78;57.01
72952;HTU21D;61102;51.956;5.878;2022-09-09T15:44:41;22.82;57.16
72952;HTU21D;61102;51.956;5.878;2022-09-09T15:47:11;22.83;56.74
72952;HTU21D;61102;51.956;5.878;2022-09-09T15:49:38;22.81;56.26
72952;HTU21D;61102;51.956;5.878;2022-09-09T15:52:04;22.77;56.32
72952;HTU21D;61102;51.956;5.878;2022-09-09T15:54:33;22.71;56.26
72952;HTU21D;61102;51.956;5.878;2022-09-09T15:57:02;22.67;56.00
72952;HTU21D;61102;51.956;5.878;2022-09-09T15:59:29;22.63;55.84
72952;HTU21D;61102;51.956;5.878;2022-09-09T16:01:56;22.55;55.97
72952;HTU21D;61102;51.956;5.878;2022-09-09T16:04:24;22.52;56.58
72952;HTU21D;61102;51.956;5.878;2022-09-09T16:06:52;22.23;58.36
72952;HTU21D;61102;51.956;5.878;2022-09-09T16:09:18;21.90;59.18
72952;HTU21D;61102;51.956;5.878;2022-09-09T16:11:45;21.61;60.02
72952;HTU21D;61102;51.956;5.878;2022-09-09T16:14:13;21.45;60.70
72952;HTU21D;61102;51.956;5.878;2022-09-09T16:16:39;21.72;59.52
72952;HTU21D;61102;51.956;5.878;2022-09-09T16:19:08;21.46;60.62
72952;HTU21D;61102;51.956;5.878;2022-09-09T16:21:38;21.32;61.18
72952;HTU21D;61102;51.956;5.878;2022-09-09T16:24:06;21.28;61.54
72952;HTU21D;61102;51.956;5.878;2022-09-09T16:26:34;21.24;61.73
72952;HTU21D;61102;51.956;5.878;2022-09-09T16:29:01;21.25;61.85
72952;HTU21D;61102;51.956;5.878;2022-09-09T16:31:29;21.21;62.04
72952;HTU21D;61102;51.956;5.878;2022-09-09T16:33:56;21.21;62.16
72952;HTU21D;61102;51.956;5.878;2022-09-09T16:36:24;21.16;62.43
72952;HTU21D;61102;51.956;5.878;2022-09-09T16:38:55;21.08;62.60
72952;HTU21D;61102;51.956;5.878;2022-09-09T16:41:23;20.96;62.68
72952;HTU21D;61102;51.956;5.878;2022-09-09T16:46:20;20.78;62.85
72952;HTU21D;61102;51.956;5.878;2022-09-09T16:48:48;20.66;63.05
72952;HTU21D;61102;51.956;5.878;2022-09-09T16:51:17;20.56;63.31
72952;HTU21D;61102;51.956;5.878;2022-09-09T16:53:44;20.51;63.35
72952;HTU21D;61102;51.956;5.878;2022-09-09T16:56:15;20.46;63.46
72952;HTU21D;61102;51.956;5.878;2022-09-09T16:58:42;20.45;63.37
72952;HTU21D;61102;51.956;5.878;2022-09-09T17:01:09;20.43;63.39
72952;HTU21D;61102;51.956;5.878;2022-09-09T17:03:40;20.39;63.52
72952;HTU21D;61102;51.956;5.878;2022-09-09T17:06:10;20.75;62.31
72952;HTU21D;61102;51.956;5.878;2022-09-09T17:08:38;20.51;62.96
72952;HTU21D;61102;51.956;5.878;2022-09-09T17:11:12;20.40;63.47
72952;HTU21D;61102;51.956;5.878;2022-09-09T17:13:42;20.33;63.61
72952;HTU21D;61102;51.956;5.878;2022-09-09T17:16:09;20.29;63.85
72952;HTU21D;61102;51.956;5.878;2022-09-09T17:18:36;20.27;63.88
72952;HTU21D;61102;51.956;5.878;2022-09-09T17:21:04;20.20;64.06
72952;HTU21D;61102;51.956;5.878;2022-09-09T17:23:33;20.18;63.98
72952;HTU21D;61102;51.956;5.878;2022-09-09T17:25:59;20.53;62.73
72952;HTU21D;61102;51.956;5.878;2022-09-09T17:28:26;20.64;62.05
72952;HTU21D;61102;51.956;5.878;2022-09-09T17:31:03;20.26;62.96